createdAt,value
2017-11-17T00:00:09.735Z,40.28
2017-11-17T00:02:42.094Z,35.63
2017-11-17T00:05:13.355Z,38.28
2017-11-17T00:07:45.295Z,39.67
2017-11-17T00:10:17.073Z,36.22
2017-11-17T00:12:51.174Z,36.28
2017-11-17T00:15:23.635Z,35.50
2017-11-17T00:17:55.078Z,38.47
2017-11-17T00:20:26.956Z,38.17
2017-11-17T00:23:00.854Z,38.25
2017-11-17T00:25:33.634Z,36.95
2017-11-17T00:28:05.595Z,35.15
2017-11-17T00:30:36.536Z,39.83
2017-11-17T00:33:07.575Z,38.65
2017-11-17T00:35:38.994Z,36.42
2017-11-17T00:38:09.955Z,37.05
2017-11-17T00:40:45.955Z,38.90
2017-11-17T00:43:17.955Z,41.63
2017-11-17T00:45:50.475Z,41.60
2017-11-17T00:48:21.415Z,37.95
2017-11-17T00:50:57.976Z,40.28
2017-11-17T00:53:29.214Z,43.50
2017-11-17T00:56:00.255Z,40.28
2017-11-17T00:58:34.697Z,41.40
2017-11-17T01:01:05.934Z,37.95
2017-11-17T01:03:37.074Z,37.78
2017-11-17T01:06:08.515Z,37.28
2017-11-17T01:08:39.874Z,43.45
2017-11-17T01:11:11.990Z,38.65
2017-11-17T01:13:43.896Z,39.47
2017-11-17T01:16:15.434Z,36.00
2017-11-17T01:18:47.094Z,38.92
2017-11-17T01:21:17.427Z,42.58
2017-11-17T01:23:49.889Z,37.58
2017-11-17T01:26:19.288Z,35.30
2017-11-17T01:28:54.128Z,40.30
2017-11-17T01:31:26.386Z,38.92
2017-11-17T01:33:58.386Z,41.37
2017-11-17T01:36:29.286Z,36.85
2017-11-17T01:39:01.667Z,37.13
2017-11-17T01:41:33.327Z,34.97
2017-11-17T01:44:04.346Z,39.80
2017-11-17T01:46:40.606Z,36.30
2017-11-17T01:49:12.692Z,40.70
2017-11-17T01:51:45.567Z,42.83
2017-11-17T01:54:18.006Z,36.95
2017-11-17T01:56:49.967Z,37.83
2017-11-17T01:59:27.286Z,37.67
2017-11-17T02:01:58.950Z,37.80
2017-11-17T02:04:34.386Z,37.80
2017-11-17T02:07:07.667Z,36.25
2017-11-17T02:09:41.486Z,37.28
2017-11-17T02:12:12.547Z,35.55
2017-11-17T02:14:44.087Z,39.83
2017-11-17T02:17:16.006Z,33.47
2017-11-17T02:19:47.807Z,32.38
2017-11-17T02:22:19.367Z,38.53
2017-11-17T02:24:51.308Z,37.42
2017-11-17T02:27:22.566Z,37.00
2017-11-17T02:29:56.468Z,36.38
2017-11-17T02:32:28.953Z,37.20
2017-11-17T02:35:00.971Z,36.88
2017-11-17T02:37:32.987Z,39.17
2017-11-17T02:40:04.980Z,36.88
2017-11-17T02:42:38.227Z,39.67
2017-11-17T02:45:11.731Z,39.78
2017-11-17T02:47:43.146Z,37.85
2017-11-17T02:50:14.988Z,34.60
2017-11-17T02:52:51.988Z,39.05
2017-11-17T02:55:24.007Z,33.75
2017-11-17T02:57:54.786Z,38.33
2017-11-17T03:00:25.987Z,38.78
2017-11-17T03:02:59.452Z,35.03
2017-11-17T03:05:33.147Z,39.25
2017-11-17T03:08:04.808Z,38.45
2017-11-17T03:10:43.986Z,37.88
2017-11-17T03:13:19.893Z,34.95
2017-11-17T03:15:52.874Z,35.10
2017-11-17T03:18:24.936Z,35.50
2017-11-17T03:20:55.354Z,40.15
2017-11-17T03:23:27.442Z,40.72
2017-11-17T03:25:58.973Z,42.25
2017-11-17T03:28:30.992Z,36.03
2017-11-17T03:31:02.791Z,36.03
2017-11-17T03:33:33.228Z,39.17
2017-11-17T03:36:05.199Z,39.33
2017-11-17T03:38:36.113Z,35.70
2017-11-17T03:41:08.914Z,33.08
2017-11-17T03:43:38.974Z,33.90
2017-11-17T03:46:10.155Z,36.83
2017-11-17T03:48:42.234Z,41.80
2017-11-17T03:51:16.227Z,40.85
2017-11-17T03:53:47.375Z,34.42
2017-11-17T03:56:19.954Z,38.80
2017-11-17T03:58:51.974Z,36.95
2017-11-17T04:01:22.955Z,38.78
2017-11-17T04:03:53.824Z,39.13
2017-11-17T04:06:23.814Z,39.03
2017-11-17T04:08:55.974Z,33.95
2017-11-17T04:11:26.974Z,39.95
2017-11-17T04:13:57.970Z,36.15
2017-11-17T04:16:32.015Z,48.58
2017-11-17T04:19:06.673Z,37.55
2017-11-17T04:21:37.641Z,42.10
2017-11-17T04:24:09.474Z,42.42
2017-11-17T04:26:44.314Z,38.53
2017-11-17T04:29:16.377Z,37.70
2017-11-17T04:31:49.574Z,38.42
2017-11-17T04:34:20.515Z,40.45
2017-11-17T04:36:50.834Z,35.05
2017-11-17T04:39:23.920Z,36.72
2017-11-17T04:41:55.154Z,36.90
2017-11-17T04:44:26.938Z,33.78
2017-11-17T04:46:58.375Z,39.25
2017-11-17T04:49:29.122Z,39.00
2017-11-17T04:51:59.322Z,35.08
2017-11-17T04:54:30.274Z,33.85
2017-11-17T04:57:09.994Z,36.08
2017-11-17T04:59:42.015Z,30.75
2017-11-17T05:02:14.235Z,30.67
2017-11-17T05:04:46.514Z,32.70
2017-11-17T05:07:17.993Z,29.65
2017-11-17T05:09:49.714Z,29.70
2017-11-17T05:12:18.995Z,30.33
2017-11-17T05:14:50.895Z,38.03
2017-11-17T05:17:22.975Z,41.00
2017-11-17T05:19:56.440Z,32.17
2017-11-17T05:22:27.994Z,32.08
2017-11-17T05:25:01.034Z,36.08
2017-11-17T05:27:32.414Z,32.80
2017-11-17T05:30:04.735Z,27.77
2017-11-17T05:32:41.015Z,28.90
2017-11-17T05:35:13.828Z,32.28
2017-11-17T05:37:44.608Z,36.00
2017-11-17T05:40:15.194Z,31.87
2017-11-17T05:42:49.514Z,38.92
2017-11-17T05:45:19.995Z,36.95
2017-11-17T05:47:51.722Z,35.67
2017-11-17T05:50:24.494Z,30.95
2017-11-17T05:52:55.414Z,31.55
2017-11-17T05:55:27.195Z,25.95
2017-11-17T05:57:58.314Z,29.80
2017-11-17T06:00:30.397Z,38.58
2017-11-17T06:03:01.335Z,33.40
2017-11-17T06:05:33.033Z,35.67
2017-11-17T06:08:04.854Z,31.90
2017-11-17T06:10:34.334Z,34.63
2017-11-17T06:13:06.217Z,35.03
2017-11-17T06:15:36.935Z,34.95
2017-11-17T06:18:06.854Z,34.65
2017-11-17T06:20:38.615Z,48.25
2017-11-17T06:23:11.493Z,35.90
2017-11-17T06:25:43.353Z,41.30
2017-11-17T06:28:14.394Z,33.65
2017-11-17T06:30:44.914Z,40.40
2017-11-17T06:33:18.314Z,40.25
2017-11-17T06:35:49.434Z,43.28
2017-11-17T06:38:23.775Z,47.67
2017-11-17T06:40:57.574Z,37.50
2017-11-17T06:43:29.435Z,40.42
2017-11-17T06:46:02.117Z,36.50
2017-11-17T06:48:35.315Z,35.88
2017-11-17T06:51:06.357Z,37.22
2017-11-17T06:53:38.510Z,33.67
2017-11-17T06:56:10.969Z,42.97
2017-11-17T06:58:42.029Z,36.00
2017-11-17T07:01:13.790Z,32.97
2017-11-17T07:03:49.129Z,38.20
2017-11-17T07:06:20.891Z,39.58
2017-11-17T07:08:51.710Z,34.58
2017-11-17T07:11:25.736Z,36.67
2017-11-17T07:13:57.595Z,34.17
2017-11-17T07:16:28.729Z,37.25
2017-11-17T07:19:00.789Z,37.30
2017-11-17T07:21:35.010Z,32.42
2017-11-17T07:24:06.969Z,32.72
2017-11-17T07:26:39.235Z,35.40
2017-11-17T07:29:10.589Z,33.42
2017-11-17T07:31:42.230Z,37.80
2017-11-17T07:34:12.970Z,33.00
2017-11-17T07:36:45.149Z,33.65
2017-11-17T07:39:16.311Z,33.90
2017-11-17T07:41:49.691Z,34.95
2017-11-17T07:44:20.829Z,32.80
2017-11-17T07:46:53.010Z,37.65
2017-11-17T07:49:26.392Z,36.65
2017-11-17T07:51:58.009Z,37.17
2017-11-17T07:54:29.589Z,35.33
2017-11-17T07:57:05.233Z,30.60
2017-11-17T07:59:36.889Z,33.40
2017-11-17T08:02:08.030Z,33.85
2017-11-17T08:04:39.888Z,37.72
2017-11-17T08:07:10.329Z,36.85
2017-11-17T08:09:42.470Z,37.33
2017-11-17T08:12:15.254Z,33.45
2017-11-17T08:14:47.636Z,31.87
2017-11-17T08:17:29.735Z,35.97
2017-11-17T08:20:01.395Z,39.90
2017-11-17T08:22:37.454Z,41.00
2017-11-17T08:25:09.002Z,35.95
2017-11-17T08:27:40.154Z,36.60
2017-11-17T08:30:11.493Z,31.95
2017-11-17T08:32:43.555Z,36.53
2017-11-17T08:35:16.634Z,39.97
2017-11-17T08:37:47.894Z,34.08
2017-11-17T08:40:19.015Z,36.75
2017-11-17T08:42:53.016Z,43.05
2017-11-17T08:45:23.576Z,36.05
2017-11-17T08:47:54.280Z,40.50
2017-11-17T08:50:27.494Z,38.67
2017-11-17T08:52:59.354Z,37.90
2017-11-17T08:55:31.214Z,40.03
2017-11-17T08:58:04.412Z,38.03
2017-11-17T09:00:36.271Z,40.00
2017-11-17T09:03:07.192Z,32.20
2017-11-17T09:05:38.257Z,35.92
2017-11-17T09:08:10.410Z,44.30
2017-11-17T09:10:41.649Z,32.92
2017-11-17T09:13:13.930Z,30.85
2017-11-17T09:15:48.029Z,48.78
2017-11-17T09:18:20.710Z,32.22
2017-11-17T09:20:50.729Z,37.58
2017-11-17T09:23:21.571Z,58.50
2017-11-17T09:25:53.730Z,42.05
2017-11-17T09:28:25.469Z,46.45
2017-11-17T09:31:01.430Z,42.80
2017-11-17T09:33:36.894Z,44.28
2017-11-17T09:36:08.540Z,39.58
2017-11-17T09:38:42.342Z,38.10
2017-11-17T09:41:15.542Z,57.88
2017-11-17T09:43:48.059Z,40.65
2017-11-17T09:46:19.561Z,38.95
2017-11-17T09:48:53.461Z,46.97
2017-11-17T09:51:25.641Z,39.25
2017-11-17T09:54:01.487Z,35.05
2017-11-17T09:56:33.561Z,35.28
2017-11-17T09:59:10.741Z,42.30
2017-11-17T10:01:41.981Z,37.03
2017-11-17T10:04:16.501Z,43.87
2017-11-17T10:06:48.262Z,50.22
2017-11-17T10:09:20.080Z,39.15
2017-11-17T10:11:51.981Z,34.25
2017-11-17T10:14:26.061Z,38.90
2017-11-17T10:16:57.961Z,42.47
2017-11-17T10:19:29.921Z,43.28
2017-11-17T10:22:01.026Z,39.55
2017-11-17T10:24:32.920Z,35.38
2017-11-17T10:27:05.789Z,39.63
2017-11-17T10:29:37.761Z,39.75
2017-11-17T10:32:09.545Z,38.03
2017-11-17T10:34:42.000Z,37.95
2017-11-17T10:37:12.526Z,37.75
2017-11-17T10:39:43.554Z,49.38
2017-11-17T10:42:15.621Z,43.08
2017-11-17T10:44:46.461Z,43.65
2017-11-17T10:47:17.513Z,60.15
2017-11-17T10:49:49.764Z,72.35
2017-11-17T10:52:24.504Z,47.40
2017-11-17T10:54:58.396Z,45.38
2017-11-17T10:57:32.062Z,47.17
2017-11-17T11:00:04.796Z,58.30
2017-11-17T11:02:36.235Z,51.40
2017-11-17T11:05:10.958Z,44.28
2017-11-17T11:07:42.305Z,47.10
2017-11-17T11:10:14.176Z,52.78
2017-11-17T11:12:46.096Z,46.90
2017-11-17T11:15:21.257Z,44.72
2017-11-17T11:17:52.521Z,48.45
2017-11-17T11:20:23.391Z,61.42
2017-11-17T11:23:02.043Z,49.28
2017-11-17T11:25:33.077Z,48.08
2017-11-17T11:28:10.516Z,47.72
2017-11-17T11:30:41.636Z,52.70
2017-11-17T11:33:12.178Z,51.25
2017-11-17T11:35:42.996Z,57.50
2017-11-17T11:38:13.716Z,52.22
2017-11-17T11:40:44.778Z,52.53
2017-11-17T11:43:16.737Z,55.03
2017-11-17T11:45:52.819Z,50.80
2017-11-17T11:48:32.038Z,50.80
2017-11-17T11:51:07.257Z,54.40
2017-11-17T11:53:39.017Z,48.80
2017-11-17T11:56:10.176Z,52.08
2017-11-17T11:58:43.557Z,50.72
2017-11-17T12:01:16.537Z,47.13
2017-11-17T12:03:48.296Z,47.38
2017-11-17T12:06:20.477Z,52.13
2017-11-17T12:08:52.236Z,48.33
2017-11-17T12:11:23.577Z,48.72
2017-11-17T12:13:54.310Z,49.60
2017-11-17T12:16:26.578Z,47.85
2017-11-17T12:18:57.716Z,41.50
2017-11-17T12:21:29.997Z,43.20
2017-11-17T12:24:02.057Z,42.97
2017-11-17T12:26:36.176Z,42.95
2017-11-17T12:29:09.157Z,44.60
2017-11-17T12:31:44.996Z,42.22
2017-11-17T12:34:15.439Z,45.90
2017-11-17T12:36:47.396Z,43.65
2017-11-17T12:39:19.056Z,43.78
2017-11-17T12:41:54.781Z,49.22
2017-11-17T12:44:25.931Z,46.78
2017-11-17T12:46:58.049Z,47.42
2017-11-17T12:49:31.811Z,50.85
2017-11-17T12:52:03.143Z,43.67
2017-11-17T12:54:37.045Z,48.05
2017-11-17T12:57:15.884Z,46.50
2017-11-17T12:59:46.624Z,42.58
2017-11-17T13:02:18.493Z,64.65
2017-11-17T13:04:50.732Z,58.58
2017-11-17T13:07:22.002Z,46.00
2017-11-17T13:09:52.628Z,56.47
2017-11-17T13:12:26.632Z,44.90
2017-11-17T13:14:57.581Z,46.45
2017-11-17T13:17:29.234Z,47.00
2017-11-17T13:20:01.593Z,47.15
2017-11-17T13:22:38.877Z,46.85
2017-11-17T13:25:10.097Z,42.35
2017-11-17T13:27:42.077Z,43.35
2017-11-17T13:30:13.437Z,48.87
2017-11-17T13:32:45.197Z,41.08
2017-11-17T13:35:20.081Z,56.40
2017-11-17T13:37:55.879Z,45.38
2017-11-17T13:40:27.533Z,41.63
2017-11-17T13:43:00.818Z,44.22
2017-11-17T13:45:31.775Z,44.65
2017-11-17T13:48:03.919Z,39.92
2017-11-17T13:50:38.455Z,42.53
2017-11-17T13:53:10.515Z,44.40
2017-11-17T13:55:42.580Z,44.17
2017-11-17T13:58:15.572Z,45.45
2017-11-17T14:00:47.230Z,48.90
2017-11-17T14:03:18.057Z,28.12
2017-11-17T14:05:48.989Z,43.72
2017-11-17T14:08:20.455Z,53.10
2017-11-17T14:10:52.629Z,35.67
2017-11-17T14:13:23.989Z,43.25
2017-11-17T14:15:55.717Z,55.38
2017-11-17T14:18:29.814Z,49.80
2017-11-17T14:21:01.994Z,40.28
2017-11-17T14:23:34.100Z,39.85
2017-11-17T14:26:04.899Z,38.83
2017-11-17T14:28:41.926Z,45.40
2017-11-17T14:31:14.080Z,43.20
2017-11-17T14:33:46.076Z,43.85
2017-11-17T14:36:21.654Z,43.08
2017-11-17T14:38:55.551Z,42.10
2017-11-17T14:41:29.363Z,45.10
2017-11-17T14:44:01.623Z,50.00
2017-11-17T14:46:35.136Z,40.92
2017-11-17T14:49:06.687Z,38.85
2017-11-17T14:51:38.080Z,39.55
2017-11-17T14:54:10.948Z,37.90
2017-11-17T14:56:44.401Z,42.65
2017-11-17T14:59:15.560Z,40.78
2017-11-17T15:01:48.369Z,45.65
2017-11-17T15:04:19.689Z,44.38
2017-11-17T15:06:50.824Z,42.58
2017-11-17T15:09:22.083Z,69.03
2017-11-17T15:11:59.070Z,45.47
2017-11-17T15:14:32.220Z,44.67
2017-11-17T15:17:03.687Z,43.97
2017-11-17T15:19:36.682Z,45.58
2017-11-17T15:22:07.915Z,48.00
2017-11-17T15:24:39.991Z,47.85
2017-11-17T15:27:12.353Z,44.88
2017-11-17T15:29:46.771Z,43.50
2017-11-17T15:32:19.091Z,47.92
2017-11-17T15:34:50.811Z,41.95
2017-11-17T15:37:22.091Z,43.58
2017-11-17T15:39:53.073Z,52.20
2017-11-17T15:42:25.252Z,41.33
2017-11-17T15:44:57.211Z,41.25
2017-11-17T15:47:30.192Z,42.58
2017-11-17T15:50:02.131Z,40.88
2017-11-17T15:52:34.831Z,44.58
2017-11-17T15:55:09.472Z,41.90
2017-11-17T15:57:41.731Z,52.42
2017-11-17T16:00:14.071Z,39.08
2017-11-17T16:02:46.377Z,49.38
2017-11-17T16:05:17.419Z,41.58
2017-11-17T16:07:49.676Z,42.25
2017-11-17T16:10:20.935Z,43.67
2017-11-17T16:12:52.796Z,37.90
2017-11-17T16:15:23.515Z,44.80
2017-11-17T16:17:54.656Z,46.40
2017-11-17T16:20:28.475Z,48.60
2017-11-17T16:23:00.636Z,36.45
2017-11-17T16:25:38.323Z,38.22
2017-11-17T16:28:11.316Z,35.92
2017-11-17T16:30:43.076Z,35.20
2017-11-17T16:33:17.397Z,40.08
2017-11-17T16:35:52.417Z,38.35
2017-11-17T16:38:24.176Z,39.15
2017-11-17T16:40:55.236Z,34.85
2017-11-17T16:43:26.376Z,33.47
2017-11-17T16:45:58.236Z,41.17
2017-11-17T16:48:29.156Z,38.28
2017-11-17T16:51:00.719Z,36.88
2017-11-17T16:53:32.267Z,47.80
2017-11-17T16:56:03.926Z,45.53
2017-11-17T16:58:35.586Z,40.90
2017-11-17T17:01:07.767Z,42.35
2017-11-17T17:03:38.785Z,37.90
2017-11-17T17:06:10.106Z,36.95
2017-11-17T17:08:40.966Z,42.58
2017-11-17T17:11:12.107Z,41.28
2017-11-17T17:13:43.367Z,36.45
2017-11-17T17:16:13.787Z,32.80
2017-11-17T17:18:45.086Z,34.83
2017-11-17T17:21:17.188Z,32.22
2017-11-17T17:23:49.466Z,31.02
2017-11-17T17:26:21.726Z,35.58
2017-11-17T17:28:52.666Z,37.85
2017-11-17T17:31:26.126Z,36.67
2017-11-17T17:33:57.419Z,30.08
2017-11-17T17:36:29.687Z,34.38
2017-11-17T17:39:00.208Z,35.53
2017-11-17T17:41:29.926Z,33.33
2017-11-17T17:44:04.846Z,38.28
2017-11-17T17:46:35.987Z,34.03
2017-11-17T17:49:07.850Z,35.25
2017-11-17T17:51:38.992Z,37.97
2017-11-17T17:54:09.812Z,40.20
2017-11-17T17:56:42.410Z,39.92
2017-11-17T17:59:16.611Z,36.78
2017-11-17T18:01:50.099Z,36.45
2017-11-17T18:04:22.090Z,40.60
2017-11-17T18:06:53.230Z,38.63
2017-11-17T18:09:26.211Z,40.90
2017-11-17T18:11:57.752Z,39.17
2017-11-17T18:14:29.090Z,42.67
2017-11-17T18:17:00.752Z,46.70
2017-11-17T18:19:32.536Z,38.88
2017-11-17T18:22:11.552Z,40.47
2017-11-17T18:24:43.611Z,37.00
2017-11-17T18:27:16.132Z,43.50
2017-11-17T18:29:47.784Z,40.55
2017-11-17T18:32:20.430Z,48.25
2017-11-17T18:34:52.537Z,43.08
2017-11-17T18:37:23.803Z,43.47
2017-11-17T18:39:55.381Z,42.90
2017-11-17T18:42:26.483Z,38.85
2017-11-17T18:44:59.319Z,37.72
2017-11-17T18:47:32.110Z,44.25
2017-11-17T18:50:04.996Z,41.15
2017-11-17T18:52:36.695Z,40.75
2017-11-17T18:55:08.481Z,39.92
2017-11-17T18:57:44.101Z,41.70
2017-11-17T19:00:16.176Z,39.90
2017-11-17T19:02:48.061Z,38.28
2017-11-17T19:05:19.187Z,38.70
2017-11-17T19:07:52.161Z,43.45
2017-11-17T19:10:23.564Z,38.00
2017-11-17T19:12:55.402Z,41.42
2017-11-17T19:15:26.668Z,38.78
2017-11-17T19:17:58.701Z,44.13
2017-11-17T19:20:31.082Z,42.58
2017-11-17T19:23:03.040Z,40.88
2017-11-17T19:25:34.283Z,39.92
2017-11-17T19:28:05.449Z,38.25
2017-11-17T19:30:42.101Z,44.83
2017-11-17T19:33:13.441Z,40.03
2017-11-17T19:35:49.122Z,42.03
2017-11-17T19:38:22.784Z,43.83
2017-11-17T19:40:55.669Z,44.05
2017-11-17T19:43:27.744Z,34.45
2017-11-17T19:46:00.218Z,37.13
2017-11-17T19:48:33.140Z,33.85
2017-11-17T19:51:04.539Z,36.10
2017-11-17T19:53:36.820Z,35.35
2017-11-17T19:56:08.878Z,36.88
2017-11-17T19:58:39.819Z,35.58
2017-11-17T20:01:10.566Z,38.15
2017-11-17T20:03:42.208Z,41.03
2017-11-17T20:06:18.679Z,34.88
2017-11-17T20:08:50.118Z,32.55
2017-11-17T20:11:22.299Z,34.45
2017-11-17T20:13:55.279Z,33.88
2017-11-17T20:16:26.220Z,33.72
2017-11-17T20:19:01.049Z,34.10
2017-11-17T20:21:32.296Z,34.40
2017-11-17T20:24:03.214Z,36.38
2017-11-17T20:26:35.095Z,32.83
2017-11-17T20:29:06.016Z,36.50
2017-11-17T20:31:38.155Z,32.95
2017-11-17T20:34:09.436Z,28.90
2017-11-17T20:36:43.035Z,32.40
2017-11-17T20:39:18.475Z,28.77
2017-11-17T20:41:51.055Z,29.10
2017-11-17T20:44:25.576Z,29.27
2017-11-17T20:46:57.644Z,29.40
2017-11-17T20:49:29.519Z,28.05
2017-11-17T20:52:01.579Z,32.88
2017-11-17T20:54:33.215Z,30.88
2017-11-17T20:57:07.134Z,31.83
2017-11-17T20:59:38.584Z,29.75
2017-11-17T21:02:10.826Z,29.17
2017-11-17T21:04:43.635Z,26.10
2017-11-17T21:07:14.996Z,28.23
2017-11-17T21:09:46.337Z,27.83
2017-11-17T21:12:18.495Z,26.90
2017-11-17T21:14:50.556Z,28.23
2017-11-17T21:17:21.424Z,28.52
2017-11-17T21:19:53.137Z,33.20
2017-11-17T21:22:25.177Z,29.45
2017-11-17T21:24:56.778Z,23.55
2017-11-17T21:27:28.157Z,28.90
2017-11-17T21:29:59.257Z,26.02
2017-11-17T21:32:30.517Z,29.33
2017-11-17T21:35:02.257Z,29.00
2017-11-17T21:37:34.117Z,22.45
2017-11-17T21:40:05.240Z,23.62
2017-11-17T21:42:36.300Z,25.55
2017-11-17T21:45:08.143Z,23.10
2017-11-17T21:47:40.439Z,27.92
2017-11-17T21:50:12.799Z,25.25
2017-11-17T21:52:46.200Z,27.42
2017-11-17T21:55:18.580Z,24.33
2017-11-17T21:57:49.720Z,25.15
2017-11-17T22:00:21.880Z,31.05
2017-11-17T22:03:00.907Z,25.45
2017-11-17T22:05:33.118Z,24.85
2017-11-17T22:08:05.559Z,23.98
2017-11-17T22:10:39.960Z,30.88
2017-11-17T22:13:11.619Z,28.45
2017-11-17T22:15:42.462Z,27.10
2017-11-17T22:18:15.639Z,27.62
2017-11-17T22:20:46.800Z,26.15
2017-11-17T22:23:22.639Z,26.58
2017-11-17T22:25:54.799Z,30.95
2017-11-17T22:28:25.838Z,28.02
2017-11-17T22:30:57.511Z,26.25
2017-11-17T22:33:28.643Z,28.73
2017-11-17T22:35:58.965Z,27.65
2017-11-17T22:38:30.104Z,30.85
2017-11-17T22:41:04.524Z,31.65
2017-11-17T22:43:35.886Z,35.22
2017-11-17T22:46:06.605Z,25.62
2017-11-17T22:48:38.664Z,32.47
2017-11-17T22:51:11.364Z,31.40
2017-11-17T22:53:43.415Z,31.60
2017-11-17T22:56:15.593Z,37.17
2017-11-17T22:58:46.740Z,35.75
2017-11-17T23:01:17.974Z,32.92
2017-11-17T23:03:48.514Z,31.27
2017-11-17T23:06:22.292Z,34.30
2017-11-17T23:08:53.554Z,30.75
2017-11-17T23:11:24.913Z,30.60
2017-11-17T23:13:59.214Z,32.55
2017-11-17T23:16:30.612Z,32.75
2017-11-17T23:19:03.853Z,31.02
2017-11-17T23:24:11.974Z,34.35
2017-11-17T23:26:43.134Z,30.75
2017-11-17T23:29:16.513Z,31.80
2017-11-17T23:31:48.696Z,31.98
2017-11-17T23:34:19.633Z,33.00
2017-11-17T23:36:51.993Z,30.73
2017-11-17T23:39:23.337Z,29.55
2017-11-17T23:41:54.573Z,28.30
2017-11-17T23:44:25.933Z,30.08
2017-11-17T23:46:59.532Z,26.87
2017-11-17T23:49:32.113Z,32.20
2017-11-17T23:52:06.533Z,28.45
2017-11-17T23:54:37.573Z,28.95
2017-11-17T23:57:11.481Z,27.23
2017-11-17T23:59:44.174Z,30.75
